Time;durP1;ratioP1;P1;durP2;ratioP2;P2;SDS_P1;SDS_P2;PMS_P1;PMS_P2;Temp;Humidity;BMP_temperature;BMP_pressure;BME280_temperature;BME280_humidity;BME280_pressure;Samples;Min_cycle;Max_cycle;Signal;HPM_P1;HPM_P2
2021/05/13 00:00:21;;;;;;;14.23;7.10;;;9.40;99.90;;;;;;4404382;32;20519;-65
2021/05/13 00:02:51;;;;;;;14.63;7.20;;;9.40;99.90;;;;;;4404809;32;20203;-65
2021/05/13 00:05:20;;;;;;;19.87;9.13;;;9.40;99.90;;;;;;4404428;32;20649;-66
2021/05/13 00:07:55;;;;;;;14.17;8.10;;;9.30;99.90;;;;;;4405218;32;20165;-66
2021/05/13 00:10:28;;;;;;;12.23;7.17;;;9.30;99.90;;;;;;4398370;32;20141;-65
2021/05/13 00:12:57;;;;;;;12.23;7.00;;;9.40;99.90;;;;;;4402355;32;20588;-66
2021/05/13 00:15:29;;;;;;;14.37;6.93;;;9.30;99.90;;;;;;4404110;32;20200;-63
2021/05/13 00:18:01;;;;;;;12.90;7.40;;;9.30;99.90;;;;;;4402992;32;20174;-65
2021/05/13 00:20:30;;;;;;;12.67;6.67;;;9.30;99.90;;;;;;4403552;32;20160;-65
2021/05/13 00:23:04;;;;;;;15.17;8.00;;;9.20;99.90;;;;;;4406152;32;20154;-65
2021/05/13 00:25:33;;;;;;;12.43;7.20;;;9.20;99.90;;;;;;4403106;32;20184;-65
2021/05/13 00:28:05;;;;;;;20.67;8.37;;;9.20;99.90;;;;;;4405210;32;20494;-66
2021/05/13 00:30:55;;;;;;;15.33;7.97;;;9.10;99.90;;;;;;4403617;32;20164;-67
2021/05/13 00:33:23;;;;;;;15.10;7.47;;;9.10;99.90;;;;;;4402905;32;20191;-66
2021/05/13 00:35:51;;;;;;;15.83;7.73;;;9.10;99.90;;;;;;4403359;32;20436;-65
2021/05/13 00:38:19;;;;;;;13.77;7.73;;;9.10;99.90;;;;;;4404524;32;20213;-66
2021/05/13 00:40:45;;;;;;;9.57;7.10;;;9.10;99.90;;;;;;4404721;32;20586;-65
2021/05/13 00:43:28;;;;;;;11.07;7.43;;;9.10;99.90;;;;;;4404037;32;20162;-66
2021/05/13 00:46:22;;;;;;;14.37;7.30;;;9.00;99.90;;;;;;4402703;32;20151;-65
2021/05/13 00:49:01;;;;;;;11.80;7.20;;;9.00;99.90;;;;;;4404355;32;21071;-65
2021/05/13 00:51:34;;;;;;;12.63;7.53;;;9.00;99.90;;;;;;4404267;32;20592;-66
2021/05/13 00:54:04;;;;;;;14.77;8.13;;;9.00;99.90;;;;;;4403813;32;20149;-66
2021/05/13 00:56:38;;;;;;;15.57;8.70;;;9.00;99.90;;;;;;4402866;32;20194;-66
2021/05/13 00:59:12;;;;;;;13.60;7.23;;;9.00;99.90;;;;;;4400908;32;20144;-66
2021/05/13 01:01:49;;;;;;;14.87;7.87;;;9.00;99.90;;;;;;4404092;32;20219;-67
2021/05/13 01:04:23;;;;;;;15.67;7.10;;;8.90;99.90;;;;;;4402461;32;20177;-68
2021/05/13 01:06:55;;;;;;;13.00;6.83;;;8.90;99.90;;;;;;4402497;32;20198;-65
2021/05/13 01:09:39;;;;;;;12.30;6.33;;;8.90;99.90;;;;;;4404261;32;20285;-65
2021/05/13 01:12:15;;;;;;;8.87;6.10;;;8.90;99.90;;;;;;4401752;32;20484;-67
2021/05/13 01:14:43;;;;;;;12.33;7.30;;;8.90;99.90;;;;;;4403348;32;20170;-63
2021/05/13 01:17:24;;;;;;;15.00;7.47;;;8.90;99.90;;;;;;4402692;32;20166;-64
2021/05/13 01:19:56;;;;;;;12.23;7.77;;;8.90;99.90;;;;;;4403491;32;20574;-66
2021/05/13 01:22:28;;;;;;;19.87;8.70;;;8.80;99.90;;;;;;4403821;32;20187;-68
2021/05/13 01:25:07;;;;;;;14.33;8.47;;;8.80;99.90;;;;;;4402445;32;20250;-66
2021/05/13 01:27:36;;;;;;;14.73;8.00;;;8.80;99.90;;;;;;4399887;32;20216;-66
2021/05/13 01:30:17;;;;;;;12.90;7.83;;;8.80;99.90;;;;;;4404373;32;20148;-65
2021/05/13 01:32:47;;;;;;;14.27;8.67;;;8.80;99.90;;;;;;4402778;32;20565;-65
2021/05/13 01:35:27;;;;;;;14.30;8.10;;;8.80;99.90;;;;;;4404398;32;20187;-65
2021/05/13 01:38:18;;;;;;;17.40;8.70;;;8.70;99.90;;;;;;4397294;32;20248;-66
2021/05/13 01:40:56;;;;;;;15.07;8.07;;;8.70;99.90;;;;;;4403996;32;20148;-65
2021/05/13 01:43:30;;;;;;;13.77;7.90;;;8.70;99.90;;;;;;4404760;32;20163;-66
2021/05/13 01:46:06;;;;;;;15.97;8.07;;;8.60;99.90;;;;;;4402806;32;20145;-65
2021/05/13 01:48:41;;;;;;;12.50;7.50;;;8.80;99.90;;;;;;4401344;32;20171;-65
2021/05/13 01:51:08;;;;;;;13.07;8.03;;;8.60;99.90;;;;;;4403477;32;20286;-65
2021/05/13 01:53:40;;;;;;;16.73;8.10;;;8.60;99.90;;;;;;4404032;32;20148;-64
2021/05/13 01:56:17;;;;;;;12.13;7.77;;;8.60;99.90;;;;;;4404794;32;20148;-66
2021/05/13 01:58:44;;;;;;;19.33;8.23;;;8.60;99.90;;;;;;4393686;32;20194;-66
2021/05/13 02:01:13;;;;;;;11.87;7.03;;;8.50;99.90;;;;;;4402958;32;20857;-65
2021/05/13 02:03:40;;;;;;;18.63;7.50;;;8.50;99.90;;;;;;4403582;32;20171;-65
2021/05/13 02:06:07;;;;;;;14.73;7.63;;;8.50;99.90;;;;;;4404527;32;20500;-66
2021/05/13 02:08:36;;;;;;;13.53;8.03;;;8.50;99.90;;;;;;4403108;32;20144;-65
2021/05/13 02:11:04;;;;;;;15.00;7.20;;;8.50;99.90;;;;;;4404526;32;20140;-65
2021/05/13 02:13:31;;;;;;;12.30;6.47;;;8.50;99.90;;;;;;4404575;32;20136;-65
2021/05/13 02:15:58;;;;;;;12.87;7.17;;;8.40;99.90;;;;;;4405377;32;20206;-64
2021/05/13 02:18:31;;;;;;;8.87;6.03;;;8.40;99.90;;;;;;4412743;32;20465;-64
2021/05/13 02:21:00;;;;;;;13.13;6.40;;;8.40;99.90;;;;;;4403150;32;20192;-64
2021/05/13 02:23:31;;;;;;;10.50;5.97;;;8.40;99.90;;;;;;4400419;32;20189;-66
2021/05/13 02:26:02;;;;;;;16.20;6.83;;;8.30;99.90;;;;;;4400646;32;20322;-64
2021/05/13 02:28:42;;;;;;;13.27;6.83;;;8.30;99.90;;;;;;4403157;32;20182;-64
2021/05/13 02:31:08;;;;;;;12.60;6.03;;;8.30;99.90;;;;;;4403096;32;20171;-65
2021/05/13 02:33:49;;;;;;;11.93;6.40;;;8.30;99.90;;;;;;4403885;32;20186;-65
2021/05/13 02:36:17;;;;;;;11.23;6.43;;;8.30;99.90;;;;;;4404196;32;20643;-64
2021/05/13 02:38:49;;;;;;;9.77;6.50;;;8.10;99.90;;;;;;4400522;32;20700;-65
2021/05/13 02:41:20;;;;;;;6.90;5.50;;;8.20;99.90;;;;;;4404838;32;20511;-64
2021/05/13 02:43:54;;;;;;;8.70;6.30;;;8.10;99.90;;;;;;4403934;32;20269;-66
2021/05/13 02:46:28;;;;;;;9.53;6.30;;;8.10;99.90;;;;;;4403829;32;20140;-64
2021/05/13 02:48:55;;;;;;;12.73;6.60;;;8.10;99.90;;;;;;4404276;32;20143;-64
2021/05/13 02:51:27;;;;;;;11.93;6.23;;;8.10;99.90;;;;;;4404627;32;20140;-64
2021/05/13 02:53:56;;;;;;;13.67;6.63;;;8.10;99.90;;;;;;4400950;32;20155;-65
2021/05/13 02:56:26;;;;;;;13.53;6.87;;;8.10;99.90;;;;;;4399318;32;20160;-64
2021/05/13 02:58:56;;;;;;;11.30;6.10;;;8.00;99.90;;;;;;4404203;32;20147;-64
2021/05/13 03:01:33;;;;;;;12.70;6.43;;;8.00;99.90;;;;;;4403947;32;20144;-65
2021/05/13 03:04:01;;;;;;;11.30;6.77;;;8.00;99.90;;;;;;4400914;32;20213;-64
2021/05/13 03:06:29;;;;;;;11.60;6.70;;;8.00;99.90;;;;;;4396780;32;20150;-63
2021/05/13 03:08:58;;;;;;;9.93;6.30;;;7.80;99.90;;;;;;4411593;32;20147;-66
2021/05/13 03:11:33;;;;;;;11.07;7.03;;;7.90;99.90;;;;;;4399740;32;20214;-64
2021/05/13 03:14:17;;;;;;;10.43;6.23;;;7.90;99.90;;;;;;4406952;32;20171;-66
2021/05/13 03:16:43;;;;;;;12.13;6.83;;;7.80;99.90;;;;;;4405925;32;20228;-64
2021/05/13 03:19:19;;;;;;;15.23;7.13;;;7.80;99.90;;;;;;4404828;32;20163;-64
2021/05/13 03:21:47;;;;;;;11.13;6.80;;;7.80;99.90;;;;;;4403740;32;20464;-65
2021/05/13 03:24:28;;;;;;;13.27;6.13;;;7.80;99.90;;;;;;4403732;32;20222;-67
2021/05/13 03:27:11;;;;;;;10.93;6.37;;;7.80;99.90;;;;;;4405376;32;20148;-67
2021/05/13 03:29:38;;;;;;;13.57;7.00;;;7.80;99.90;;;;;;4400457;32;20568;-65
2021/05/13 03:32:08;;;;;;;14.47;6.23;;;7.80;99.90;;;;;;4406795;32;20182;-64
2021/05/13 03:34:34;;;;;;;13.63;7.07;;;7.80;99.90;;;;;;4403055;32;20599;-68
2021/05/13 03:37:01;;;;;;;11.50;6.93;;;7.80;99.90;;;;;;4406821;32;20170;-64
2021/05/13 03:39:32;;;;;;;12.70;7.57;;;7.80;99.90;;;;;;4406248;32;20185;-66
2021/05/13 03:42:04;;;;;;;11.70;6.20;;;7.80;99.90;;;;;;4413451;32;20193;-64
2021/05/13 03:44:39;;;;;;;10.13;6.53;;;7.80;99.90;;;;;;4406358;32;20247;-65
2021/05/13 03:47:18;;;;;;;13.60;7.80;;;7.70;99.90;;;;;;4397399;32;20584;-65
2021/05/13 03:49:53;;;;;;;12.77;8.20;;;7.70;99.90;;;;;;4405497;32;20270;-65
2021/05/13 03:52:20;;;;;;;13.13;7.53;;;7.70;99.90;;;;;;4401015;32;20136;-64
2021/05/13 03:54:46;;;;;;;15.57;8.80;;;7.70;99.90;;;;;;4406093;32;20170;-67
2021/05/13 03:57:22;;;;;;;13.10;8.57;;;7.60;99.90;;;;;;4406822;32;20576;-66
2021/05/13 03:59:53;;;;;;;16.67;7.77;;;7.70;99.90;;;;;;4403796;32;20515;-65
2021/05/13 04:05:20;;;;;;;12.37;7.97;;;7.60;99.90;;;;;;4403278;32;20195;-66
2021/05/13 04:07:50;;;;;;;11.20;7.63;;;7.60;99.90;;;;;;4405315;32;20571;-67
2021/05/13 04:10:24;;;;;;;12.00;7.30;;;7.70;99.90;;;;;;4403817;32;20165;-66
2021/05/13 04:13:01;;;;;;;13.13;7.27;;;7.70;99.90;;;;;;4400771;32;20166;-65
2021/05/13 04:15:42;;;;;;;16.47;8.57;;;7.70;99.90;;;;;;4405846;32;20262;-65
2021/05/13 04:18:23;;;;;;;14.33;8.53;;;7.70;99.90;;;;;;4404927;32;20144;-65
2021/05/13 04:20:49;;;;;;;10.47;8.13;;;7.70;99.90;;;;;;4395906;32;20181;-65
2021/05/13 04:23:16;;;;;;;12.67;8.40;;;7.80;99.90;;;;;;4405302;32;20136;-66
2021/05/13 04:25:44;;;;;;;15.57;8.67;;;7.90;99.90;;;;;;4404291;32;20611;-65
2021/05/13 04:28:15;;;;;;;10.93;7.20;;;7.90;99.90;;;;;;4405710;32;20170;-65
2021/05/13 04:30:45;;;;;;;11.50;7.90;;;8.00;99.90;;;;;;4405353;32;20224;-65
2021/05/13 04:33:16;;;;;;;9.07;7.17;;;8.10;99.90;;;;;;4405847;32;20190;-67
2021/05/13 04:35:44;;;;;;;9.80;7.80;;;8.20;99.90;;;;;;4401016;32;20277;-64
2021/05/13 04:38:15;;;;;;;13.33;7.80;;;8.30;99.90;;;;;;4403373;32;20227;-65
2021/05/13 04:40:42;;;;;;;9.73;7.03;;;8.40;99.90;;;;;;4403995;32;20229;-64
2021/05/13 04:43:15;;;;;;;9.53;7.20;;;8.50;99.90;;;;;;4403733;32;20583;-64
2021/05/13 04:45:45;;;;;;;10.40;7.73;;;8.60;99.90;;;;;;4405605;32;20195;-64
2021/05/13 04:48:17;;;;;;;9.67;7.27;;;8.70;99.90;;;;;;4405891;32;20215;-64
2021/05/13 04:51:01;;;;;;;12.83;8.00;;;8.90;99.90;;;;;;4405549;32;20140;-65
2021/05/13 04:53:30;;;;;;;12.07;7.60;;;9.20;99.90;;;;;;4403061;32;20243;-65
2021/05/13 04:55:59;;;;;;;13.57;8.43;;;9.40;99.90;;;;;;4404972;32;20219;-64
2021/05/13 04:58:29;;;;;;;10.37;7.57;;;9.70;99.90;;;;;;4405546;32;20156;-65
2021/05/13 05:00:59;;;;;;;8.67;7.03;;;9.90;99.90;;;;;;4404563;32;20169;-64
2021/05/13 05:03:35;;;;;;;9.73;7.70;;;10.40;99.90;;;;;;4404104;32;20477;-64
2021/05/13 05:06:21;;;;;;;14.03;6.83;;;11.00;99.90;;;;;;4407109;32;20126;-65
2021/05/13 05:08:52;;;;;;;10.23;6.23;;;12.10;99.90;;;;;;4400688;32;20630;-66
2021/05/13 05:11:29;;;;;;;9.80;5.90;;;14.20;99.90;;;;;;4399361;32;20171;-66
2021/05/13 05:13:59;;;;;;;6.07;4.63;;;17.70;95.70;;;;;;4403175;32;20164;-64
2021/05/13 05:16:35;;;;;;;11.47;4.97;;;20.90;87.20;;;;;;4402894;32;20202;-64
2021/05/13 05:19:05;;;;;;;6.23;3.97;;;23.30;72.50;;;;;;4405474;32;20161;-64
2021/05/13 05:21:41;;;;;;;7.17;3.50;;;24.80;66.90;;;;;;4402674;32;20131;-65
2021/05/13 05:24:14;;;;;;;6.00;3.80;;;25.30;62.90;;;;;;4405264;32;20608;-66
2021/05/13 05:26:46;;;;;;;7.50;4.17;;;25.30;62.20;;;;;;4404431;32;20155;-65
2021/05/13 05:29:13;;;;;;;6.53;3.80;;;26.40;59.20;;;;;;4403934;32;20152;-64
2021/05/13 05:31:39;;;;;;;5.70;3.80;;;27.60;56.40;;;;;;4402684;32;20166;-65
2021/05/13 05:34:12;;;;;;;5.53;3.57;;;28.40;53.70;;;;;;4404674;32;20602;-65
2021/05/13 05:36:46;;;;;;;5.87;3.47;;;29.50;52.00;;;;;;4404739;32;20676;-65
2021/05/13 05:39:17;;;;;;;5.53;3.80;;;30.50;47.70;;;;;;4405715;32;20162;-66
2021/05/13 05:41:55;;;;;;;7.33;3.67;;;30.90;45.30;;;;;;4405421;32;20196;-65
2021/05/13 05:44:23;;;;;;;7.50;4.03;;;30.60;44.90;;;;;;4403783;32;20147;-66
2021/05/13 05:46:52;;;;;;;6.37;4.17;;;29.10;47.30;;;;;;4398324;32;20595;-66
2021/05/13 05:49:24;;;;;;;7.73;4.13;;;27.20;49.40;;;;;;4395292;32;20148;-64
2021/05/13 05:52:05;;;;;;;8.83;4.90;;;24.80;55.30;;;;;;4403925;32;20453;-66
2021/05/13 05:54:36;;;;;;;5.93;4.23;;;23.00;61.20;;;;;;4404721;32;20139;-65
2021/05/13 05:57:09;;;;;;;8.60;4.87;;;22.00;63.90;;;;;;4408751;32;20231;-64
2021/05/13 05:59:37;;;;;;;8.87;4.70;;;20.50;68.90;;;;;;4404424;32;20147;-66
2021/05/13 06:02:12;;;;;;;6.30;4.23;;;19.10;76.20;;;;;;4404443;32;20576;-66
2021/05/13 06:04:52;;;;;;;8.67;5.60;;;18.00;81.40;;;;;;4402795;32;20144;-64
2021/05/13 06:07:32;;;;;;;7.77;5.53;;;17.20;89.40;;;;;;4403015;32;20155;-66
2021/05/13 06:10:15;;;;;;;8.93;5.53;;;16.80;91.60;;;;;;4402849;32;20636;-67
2021/05/13 06:12:45;;;;;;;9.17;6.13;;;16.60;93.30;;;;;;4403487;32;20179;-67
2021/05/13 06:15:26;;;;;;;8.70;6.67;;;16.50;93.10;;;;;;4403570;32;20445;-65
2021/05/13 06:18:00;;;;;;;10.47;5.83;;;16.50;93.10;;;;;;4403088;32;20151;-66
2021/05/13 06:20:38;;;;;;;6.63;5.40;;;16.80;92.30;;;;;;4403140;32;20136;-66
2021/05/13 06:23:10;;;;;;;7.47;5.10;;;18.40;89.20;;;;;;4399966;32;20162;-66
2021/05/13 06:25:38;;;;;;;9.23;5.70;;;19.30;85.40;;;;;;4403374;32;20162;-65
2021/05/13 06:28:15;;;;;;;10.07;6.40;;;19.50;84.10;;;;;;4403530;32;20576;-65
2021/05/13 06:31:06;;;;;;;9.03;6.30;;;20.10;81.10;;;;;;4402091;32;20351;-64
2021/05/13 06:34:00;;;;;;;9.47;6.30;;;20.10;79.10;;;;;;4402116;32;20221;-64
2021/05/13 06:36:39;;;;;;;12.87;6.57;;;19.00;81.80;;;;;;4402813;32;20174;-65
2021/05/13 06:39:11;;;;;;;9.53;6.37;;;19.60;81.80;;;;;;4403219;32;20162;-63
2021/05/13 06:41:42;;;;;;;10.17;5.97;;;20.70;79.00;;;;;;4405507;32;20212;-67
2021/05/13 06:44:08;;;;;;;11.53;6.53;;;23.00;72.00;;;;;;4403039;32;20213;-66
2021/05/13 06:46:37;;;;;;;8.30;6.13;;;24.20;65.60;;;;;;4404467;32;20144;-65
2021/05/13 06:49:04;;;;;;;10.20;6.33;;;23.90;66.20;;;;;;4406009;32;20172;-66
2021/05/13 06:51:30;;;;;;;8.83;6.53;;;23.80;65.90;;;;;;4406011;32;20157;-66
2021/05/13 06:54:12;;;;;;;9.37;6.57;;;22.90;68.20;;;;;;4405454;32;20136;-64
2021/05/13 06:56:49;;;;;;;8.37;6.83;;;22.20;70.10;;;;;;4403045;32;20299;-64
2021/05/13 06:59:21;;;;;;;8.07;5.67;;;22.20;70.60;;;;;;4403954;32;20570;-66
2021/05/13 07:01:54;;;;;;;8.40;6.40;;;22.50;70.90;;;;;;4404874;32;20263;-67
2021/05/13 07:04:28;;;;;;;7.30;6.13;;;23.50;68.90;;;;;;4405692;32;20227;-67
2021/05/13 07:07:20;;;;;;;9.33;6.10;;;25.80;62.20;;;;;;4408826;32;20167;-66
2021/05/13 07:10:15;;;;;;;9.70;6.05;;;27.10;58.20;;;;;;4406027;32;20144;-67
2021/05/13 07:12:42;;;;;;;9.35;6.05;;;29.20;52.60;;;;;;4405296;32;20213;-65
2021/05/13 07:15:12;;;;;;;7.82;4.90;;;33.00;44.90;;;;;;4402576;32;20502;-67
2021/05/13 07:17:39;;;;;;;6.22;4.85;;;36.20;39.90;;;;;;4406263;32;20229;-67
2021/05/13 07:20:09;;;;;;;5.68;4.35;;;38.80;35.70;;;;;;4404895;32;20564;-66
2021/05/13 07:22:52;;;;;;;5.53;3.95;;;41.10;33.20;;;;;;4401590;32;20243;-67
2021/05/13 07:25:20;;;;;;;5.78;4.03;;;43.30;31.60;;;;;;4396980;32;20249;-66
2021/05/13 07:27:46;;;;;;;4.10;3.45;;;44.80;30.30;;;;;;4389096;32;20203;-64
2021/05/13 07:30:14;;;;;;;7.68;4.60;;;45.80;29.40;;;;;;4389503;32;20579;-65
2021/05/13 07:32:40;;;;;;;6.87;4.30;;;46.80;28.70;;;;;;4390371;32;20163;-66
2021/05/13 07:35:08;;;;;;;5.05;3.45;;;47.40;28.60;;;;;;4387697;32;20239;-65
2021/05/13 07:37:34;;;;;;;4.97;3.62;;;47.90;28.40;;;;;;4389458;32;20148;-65
2021/05/13 07:40:01;;;;;;;4.72;3.50;;;48.80;28.00;;;;;;4389576;32;20148;-64
2021/05/13 07:42:28;;;;;;;4.80;3.37;;;49.80;27.90;;;;;;4388199;32;20223;-64
2021/05/13 07:44:54;;;;;;;4.28;3.65;;;50.60;27.70;;;;;;4388886;32;20195;-65
2021/05/13 07:47:23;;;;;;;4.95;4.35;;;51.20;27.50;;;;;;4387272;32;20140;-66
2021/05/13 07:49:50;;;;;;;5.35;4.72;;;51.60;26.80;;;;;;4383813;32;20168;-65
2021/05/13 07:52:17;;;;;;;6.45;4.68;;;51.60;25.90;;;;;;4385654;32;20148;-66
2021/05/13 07:54:43;;;;;;;5.72;5.12;;;51.50;26.20;;;;;;4388543;32;20263;-65
2021/05/13 07:57:12;;;;;;;4.22;3.65;;;51.10;26.20;;;;;;4387107;32;20149;-65
2021/05/13 07:59:39;;;;;;;3.80;3.05;;;50.90;26.40;;;;;;4389146;32;20486;-65
2021/05/13 08:02:06;;;;;;;6.53;4.43;;;51.70;26.50;;;;;;4388371;32;20148;-65
2021/05/13 08:04:33;;;;;;;6.60;6.00;;;52.30;26.10;;;;;;4390987;32;20223;-64
2021/05/13 08:06:59;;;;;;;5.20;3.58;;;51.60;25.50;;;;;;4388931;32;20153;-65
2021/05/13 08:09:25;;;;;;;7.00;5.57;;;52.20;25.90;;;;;;4390117;32;20168;-65
2021/05/13 08:11:51;;;;;;;4.30;3.42;;;51.90;25.70;;;;;;4389590;32;20445;-65
2021/05/13 08:14:18;;;;;;;6.45;4.65;;;51.90;25.90;;;;;;4390402;32;20215;-66
2021/05/13 08:16:45;;;;;;;5.43;4.35;;;51.60;25.30;;;;;;4382012;32;20624;-64
2021/05/13 08:19:11;;;;;;;6.20;5.60;;;51.60;25.70;;;;;;4387159;32;20148;-64
2021/05/13 08:21:37;;;;;;;6.25;3.60;;;48.60;25.90;;;;;;4389601;32;20314;-65
2021/05/13 08:24:04;;;;;;;5.03;3.22;;;49.60;26.50;;;;;;4387125;32;20171;-64
2021/05/13 08:26:31;;;;;;;4.62;4.05;;;50.50;26.00;;;;;;4385155;32;20153;-66
2021/05/13 08:28:57;;;;;;;5.12;4.43;;;49.90;26.40;;;;;;4387024;32;20234;-65
2021/05/13 08:31:23;;;;;;;5.28;4.32;;;50.60;26.20;;;;;;4386658;32;20163;-65
2021/05/13 08:33:50;;;;;;;6.45;4.45;;;50.80;25.60;;;;;;4383942;32;20175;-64
2021/05/13 08:36:17;;;;;;;4.37;3.15;;;51.70;25.80;;;;;;4387546;32;20843;-66
2021/05/13 08:38:43;;;;;;;6.85;5.70;;;52.80;25.70;;;;;;4383172;32;20207;-66
2021/05/13 08:41:11;;;;;;;4.93;4.30;;;46.10;25.40;;;;;;4384778;32;20183;-65
2021/05/13 08:43:37;;;;;;;5.07;3.62;;;45.90;27.40;;;;;;4383943;32;20172;-65
2021/05/13 08:46:04;;;;;;;5.97;3.90;;;49.10;26.70;;;;;;4375111;32;20678;-66
2021/05/13 08:48:30;;;;;;;5.10;4.55;;;49.70;26.30;;;;;;4377898;32;20172;-65
2021/05/13 08:50:59;;;;;;;5.80;4.55;;;51.00;25.50;;;;;;4384905;32;20163;-66
2021/05/13 08:53:26;;;;;;;5.07;3.75;;;50.80;25.70;;;;;;4382619;32;20167;-66
2021/05/13 08:55:52;;;;;;;4.97;3.40;;;50.10;25.60;;;;;;4382611;32;20232;-65
2021/05/13 08:58:18;;;;;;;4.25;3.40;;;46.20;26.00;;;;;;4384166;32;20171;-66
2021/05/13 09:00:51;;;;;;;7.57;4.93;;;42.60;27.50;;;;;;4379388;32;20211;-65
2021/05/13 09:03:36;;;;;;;8.50;5.40;;;36.90;29.50;;;;;;4379404;32;20227;-64
2021/05/13 09:06:06;;;;;;;8.40;4.35;;;30.10;33.30;;;;;;4383054;32;20152;-65
2021/05/13 09:08:33;;;;;;;9.57;5.62;;;27.70;37.70;;;;;;4384987;32;20226;-65
2021/05/13 09:11:10;;;;;;;7.80;4.90;;;25.70;41.50;;;;;;4385446;32;20168;-64
2021/05/13 09:13:40;;;;;;;6.85;4.90;;;24.40;45.50;;;;;;4385499;32;20298;-65
2021/05/13 09:16:26;;;;;;;11.40;6.17;;;23.40;49.30;;;;;;4382884;32;20156;-65
2021/05/13 09:18:53;;;;;;;7.30;5.67;;;22.70;54.10;;;;;;4385652;32;20159;-65
2021/05/13 09:21:22;;;;;;;6.37;4.70;;;22.10;58.00;;;;;;4390774;32;20227;-66
2021/05/13 09:23:54;;;;;;;9.43;5.73;;;21.80;60.80;;;;;;4389543;32;20286;-66
2021/05/13 09:26:21;;;;;;;9.27;5.50;;;21.70;62.80;;;;;;4388835;32;20231;-66
2021/05/13 09:28:49;;;;;;;11.83;7.33;;;21.40;64.10;;;;;;4380650;32;20185;-65
2021/05/13 09:31:38;;;;;;;9.97;6.47;;;20.90;65.60;;;;;;4387712;32;20219;-63
2021/05/13 09:34:06;;;;;;;9.27;6.10;;;20.30;68.50;;;;;;4355983;33;20156;-64
2021/05/13 09:36:35;;;;;;;9.33;6.13;;;19.80;71.20;;;;;;4352975;33;20576;-65
2021/05/13 09:39:21;;;;;;;9.23;5.87;;;19.20;73.90;;;;;;4356034;32;20264;-64
2021/05/13 09:41:58;;;;;;;8.37;5.57;;;19.00;72.70;;;;;;4352775;33;20160;-65
2021/05/13 09:44:34;;;;;;;9.80;5.47;;;18.70;72.80;;;;;;4354301;32;20152;-64
2021/05/13 09:47:20;;;;;;;8.70;4.83;;;18.90;74.10;;;;;;4356398;32;20203;-63
2021/05/13 09:50:31;;;;;;;7.43;4.73;;;19.70;70.60;;;;;;4352624;32;20168;-64
2021/05/13 09:53:00;;;;;;;9.40;5.53;;;20.30;70.30;;;;;;4325389;33;20153;-65
2021/05/13 09:55:29;;;;;;;9.33;5.80;;;20.30;68.30;;;;;;4325590;33;20248;-64
2021/05/13 09:57:58;;;;;;;8.17;4.77;;;19.70;68.60;;;;;;4326855;33;20188;-65
2021/05/13 10:00:47;;;;;;;6.83;4.80;;;19.40;70.70;;;;;;4328637;33;20254;-65
2021/05/13 10:03:17;;;;;;;9.33;5.33;;;19.50;71.20;;;;;;4327118;33;20247;-63
2021/05/13 10:05:47;;;;;;;8.90;4.57;;;19.70;69.90;;;;;;4322041;33;20150;-65
2021/05/13 10:08:23;;;;;;;9.00;5.27;;;20.30;69.70;;;;;;4322343;33;20169;-64
2021/05/13 10:10:58;;;;;;;9.13;4.90;;;21.20;66.30;;;;;;4324891;33;20637;-64
2021/05/13 10:13:30;;;;;;;6.93;4.97;;;20.90;66.60;;;;;;4344423;33;20295;-64
2021/05/13 10:15:56;;;;;;;9.03;5.90;;;21.50;65.20;;;;;;4355996;32;20156;-64
2021/05/13 10:18:27;;;;;;;10.03;5.63;;;21.60;64.80;;;;;;4358258;32;20274;-64
2021/05/13 10:20:57;;;;;;;6.43;5.07;;;21.90;64.60;;;;;;4357388;32;20618;-65
2021/05/13 10:23:25;;;;;;;7.27;5.37;;;21.90;63.30;;;;;;4359042;32;20323;-65
2021/05/13 10:25:51;;;;;;;8.43;4.90;;;22.00;63.10;;;;;;4357878;32;20183;-65
2021/05/13 10:38:48;;;;;;;8.63;4.53;;;21.10;62.30;;;;;;4364482;32;20179;-65
2021/05/13 10:44:40;;;;;;;8.83;5.07;;;21.10;63.60;;;;;;4362228;32;20231;-66
2021/05/13 10:47:09;;;;;;;9.63;4.40;;;20.70;65.70;;;;;;4359227;32;20672;-65
2021/05/13 10:49:51;;;;;;;6.90;4.60;;;21.00;60.70;;;;;;4362002;32;20148;-66
2021/05/13 10:52:41;;;;;;;9.10;4.53;;;21.00;62.70;;;;;;4332987;33;20188;-65
2021/05/13 11:08:46;;;;;;;8.07;3.90;;;21.40;60.20;;;;;;4322809;33;20168;-63
2021/05/13 11:11:13;;;;;;;7.40;3.93;;;21.40;61.20;;;;;;4318886;33;20207;-64
2021/05/13 11:13:47;;;;;;;6.70;3.57;;;21.50;59.60;;;;;;4321491;33;20227;-64
2021/05/13 11:16:42;;;;;;;6.90;4.10;;;21.60;58.90;;;;;;4327378;33;20161;-64
2021/05/13 11:19:16;;;;;;;6.57;4.07;;;21.40;59.10;;;;;;4281420;33;20194;-64
2021/05/13 11:22:03;;;;;;;8.83;4.43;;;21.50;57.80;;;;;;4275911;33;20269;-65
2021/05/13 11:24:40;;;;;;;7.20;3.93;;;21.50;57.70;;;;;;4279405;33;20192;-65
2021/05/13 11:27:08;;;;;;;9.33;4.10;;;21.80;59.50;;;;;;4292573;33;20154;-65
2021/05/13 11:29:46;;;;;;;7.57;3.97;;;22.00;58.20;;;;;;4312837;33;20176;-65
2021/05/13 11:32:16;;;;;;;6.43;3.70;;;22.00;56.20;;;;;;4336143;33;20692;-65
2021/05/13 11:34:46;;;;;;;6.27;3.17;;;22.10;54.60;;;;;;4340367;33;20183;-65
2021/05/13 11:37:35;;;;;;;7.47;3.17;;;21.80;54.80;;;;;;4339355;33;20244;-66
2021/05/13 11:40:32;;;;;;;8.03;3.23;;;21.50;56.30;;;;;;4340715;33;20157;-66
2021/05/13 11:43:31;;;;;;;5.33;3.13;;;21.60;58.20;;;;;;4294671;33;20237;-65
2021/05/13 11:46:01;;;;;;;7.13;2.70;;;22.20;55.20;;;;;;4281247;33;20184;-65
2021/05/13 11:48:38;;;;;;;5.03;2.90;;;22.70;56.30;;;;;;4286181;33;20159;-65
2021/05/13 11:51:07;;;;;;;5.70;2.77;;;22.80;52.30;;;;;;4283805;33;20584;-65
2021/05/13 11:53:35;;;;;;;8.23;3.20;;;22.70;52.60;;;;;;4282375;33;20226;-66
2021/05/13 11:56:04;;;;;;;5.10;2.70;;;22.70;52.30;;;;;;4303824;33;20177;-65
2021/05/13 11:58:46;;;;;;;5.90;2.73;;;22.70;49.90;;;;;;4315445;33;20165;-66
2021/05/13 12:01:17;;;;;;;3.60;2.83;;;22.70;51.60;;;;;;4309404;33;20562;-64
2021/05/13 12:03:43;;;;;;;5.90;2.93;;;22.80;49.80;;;;;;4313418;33;20225;-65
2021/05/13 12:06:10;;;;;;;6.33;3.57;;;22.70;50.20;;;;;;4313956;33;20207;-64
2021/05/13 12:19:06;;;;;;;4.03;2.13;;;22.00;50.40;;;;;;4343621;33;20171;-67
2021/05/13 12:21:36;;;;;;;5.77;2.53;;;21.90;52.00;;;;;;4370673;32;20294;-66
2021/05/13 12:24:04;;;;;;;6.00;2.33;;;22.10;51.50;;;;;;4378505;32;20152;-67
2021/05/13 12:26:40;;;;;;;9.23;2.80;;;22.50;51.10;;;;;;4381687;32;20526;-65
2021/05/13 12:29:13;;;;;;;4.37;2.30;;;22.70;50.60;;;;;;4388736;32;20468;-65
2021/05/13 12:31:39;;;;;;;5.23;2.40;;;22.90;50.00;;;;;;4375692;32;20175;-66
2021/05/13 12:34:07;;;;;;;5.73;2.30;;;23.00;49.80;;;;;;4390261;32;20145;-66
2021/05/13 12:36:35;;;;;;;4.53;2.30;;;23.10;49.20;;;;;;4382453;32;20167;-64
2021/05/13 12:39:03;;;;;;;8.43;2.67;;;23.20;51.00;;;;;;4382530;32;20202;-65
2021/05/13 12:41:30;;;;;;;5.10;2.40;;;22.90;51.80;;;;;;4387993;32;20490;-67
2021/05/13 12:44:09;;;;;;;5.07;2.37;;;22.60;52.70;;;;;;4381388;32;20144;-67
2021/05/13 12:46:43;;;;;;;8.57;3.37;;;22.40;53.60;;;;;;4388598;32;20136;-68
2021/05/13 12:49:20;;;;;;;6.93;3.07;;;22.20;53.90;;;;;;4381781;32;20623;-66
2021/05/13 12:51:59;;;;;;;5.83;2.57;;;22.20;54.10;;;;;;4384111;32;20152;-66
2021/05/13 12:54:26;;;;;;;6.93;2.83;;;22.20;53.80;;;;;;4384228;32;20227;-65
2021/05/13 12:56:52;;;;;;;5.83;2.70;;;22.20;53.10;;;;;;4383601;32;20156;-64
2021/05/13 12:59:19;;;;;;;4.70;2.50;;;22.40;53.30;;;;;;4381622;32;20240;-67
2021/05/13 13:02:01;;;;;;;7.50;3.43;;;22.90;53.10;;;;;;4385872;32;20476;-65
2021/05/13 13:04:52;;;;;;;6.90;2.97;;;23.20;50.50;;;;;;4384389;32;20219;-67
2021/05/13 13:07:39;;;;;;;5.43;2.77;;;22.90;52.20;;;;;;4386584;32;20280;-65
2021/05/13 13:10:27;;;;;;;5.03;2.77;;;22.80;52.60;;;;;;4383091;32;20208;-67
2021/05/13 13:13:14;;;;;;;4.83;2.70;;;22.40;50.80;;;;;;4385735;32;20152;-63
2021/05/13 13:15:49;;;;;;;8.50;3.30;;;22.10;53.20;;;;;;4386863;32;20233;-65
2021/05/13 13:18:17;;;;;;;5.90;2.90;;;21.80;51.90;;;;;;4388232;32;20147;-66
2021/05/13 13:20:55;;;;;;;5.27;3.10;;;21.70;54.60;;;;;;4381022;32;20218;-65
2021/05/13 13:23:24;;;;;;;5.10;3.30;;;21.50;54.20;;;;;;4378352;32;20140;-65
2021/05/13 13:25:56;;;;;;;6.57;3.30;;;21.20;55.80;;;;;;4381267;32;20174;-67
2021/05/13 13:28:24;;;;;;;9.63;3.83;;;20.90;56.20;;;;;;4389850;32;20144;-65
2021/05/13 13:30:52;;;;;;;12.13;3.77;;;20.90;56.10;;;;;;4378765;32;20171;-68
2021/05/13 13:33:23;;;;;;;7.80;3.20;;;20.90;56.40;;;;;;4386594;32;20552;-67
2021/05/13 13:35:53;;;;;;;8.57;2.93;;;21.10;57.00;;;;;;4385206;32;20144;-67
2021/05/13 13:38:21;;;;;;;5.80;3.10;;;21.50;56.40;;;;;;4386892;32;20222;-65
2021/05/13 13:40:49;;;;;;;6.37;2.90;;;21.80;55.80;;;;;;4385162;32;20157;-66
2021/05/13 13:43:15;;;;;;;7.03;2.97;;;21.90;52.40;;;;;;4384855;32;20182;-66
2021/05/13 13:45:43;;;;;;;9.07;3.37;;;21.60;53.70;;;;;;4381974;32;20160;-65
2021/05/13 13:48:10;;;;;;;5.90;3.40;;;21.60;54.60;;;;;;4381828;32;20167;-66
2021/05/13 13:50:37;;;;;;;8.30;3.43;;;21.60;55.00;;;;;;4381513;32;20657;-65
2021/05/13 13:53:07;;;;;;;7.27;3.07;;;21.50;55.00;;;;;;4385487;32;20198;-64
2021/05/13 13:55:36;;;;;;;7.77;3.80;;;21.50;54.70;;;;;;4386758;32;20246;-65